Time;durP1;ratioP1;P1;durP2;ratioP2;P2;SDS_P1;SDS_P2;PMS_P1;PMS_P2;Temp;Humidity;BMP_temperature;BMP_pressure;BME280_temperature;BME280_humidity;BME280_pressure;Samples;Min_cycle;Max_cycle;Signal;HPM_P1;HPM_P2
2021/06/27 00:04:57;;;;;;;;;15.25;14.25;;;;;22.04;62.51;100678.22;4915308;28;45459;-78
2021/06/27 00:07:23;;;;;;;;;18.25;17.50;;;;;22.03;62.70;100687.22;4915260;28;46341;-78
2021/06/27 00:09:54;;;;;;;;;17.25;16.75;;;;;22.05;62.48;100693.22;4898360;28;45967;-80
2021/06/27 00:12:20;;;;;;;;;20.00;19.00;;;;;21.77;62.84;100645.75;4915466;28;45519;-79
2021/06/27 00:14:45;;;;;;;;;19.25;18.00;;;;;21.98;62.76;100673.59;4915262;28;45499;-80
2021/06/27 00:17:11;;;;;;;;;15.75;15.50;;;;;21.85;62.80;100641.34;4915199;28;46399;-80
2021/06/27 00:19:37;;;;;;;;;15.00;14.75;;;;;21.92;62.60;100658.28;4915268;28;46143;-79
2021/06/27 00:22:03;;;;;;;;;17.75;17.25;;;;;21.92;62.71;100669.78;4917204;28;45789;-79
2021/06/27 00:24:28;;;;;;;;;17.50;16.50;;;;;22.01;62.63;100691.94;4918578;28;45772;-78
2021/06/27 00:26:54;;;;;;;;;19.50;16.25;;;;;21.99;63.04;100702.78;4918461;28;45788;-79
2021/06/27 00:29:19;;;;;;;;;15.75;15.75;;;;;21.99;62.59;100707.28;4918612;28;45736;-79
2021/06/27 00:35:08;;;;;;;;;16.25;16.00;;;;;21.97;63.10;100728.00;4917731;28;45722;-79
2021/06/27 00:37:34;;;;;;;;;16.75;15.50;;;;;21.90;62.78;100706.50;4918313;28;46709;-79
2021/06/27 00:40:00;;;;;;;;;16.50;16.00;;;;;21.98;63.26;100716.28;4917912;28;47099;-79
2021/06/27 00:42:25;;;;;;;;;25.00;22.25;;;;;21.99;63.02;100717.97;4918262;28;45709;-79
2021/06/27 00:44:51;;;;;;;;;17.75;16.75;;;;;21.99;63.32;100709.94;4918394;28;45698;-78
2021/06/27 00:47:31;;;;;;;;;17.00;16.50;;;;;21.97;62.76;100720.78;4901113;28;46403;-78
2021/06/27 00:49:57;;;;;;;;;17.00;16.00;;;;;21.96;63.48;100716.50;4918466;28;46301;-79
2021/06/27 00:52:23;;;;;;;;;20.25;19.25;;;;;21.91;62.98;100713.50;4900975;28;45659;-78
2021/06/27 00:54:49;;;;;;;;;18.25;17.50;;;;;21.99;63.49;100720.63;4918880;28;45822;-79
2021/06/27 00:57:14;;;;;;;;;19.75;18.75;;;;;21.99;62.83;100724.13;4922602;28;46679;-78
2021/06/27 00:59:40;;;;;;;;;21.00;19.75;;;;;21.97;63.57;100720.00;4906334;28;48237;-79
2021/06/27 01:02:05;;;;;;;;;16.00;15.25;;;;;21.99;63.48;100704.63;4924143;28;45681;-78
2021/06/27 01:04:31;;;;;;;;;18.00;17.25;;;;;21.96;63.74;100678.31;4924688;28;45581;-79
2021/06/27 01:06:57;;;;;;;;;18.50;16.75;;;;;21.99;63.65;100653.91;4922984;28;45822;-79
2021/06/27 01:09:22;;;;;;;;;17.75;16.75;;;;;21.95;63.42;100649.97;4919911;28;46253;-79
2021/06/27 01:11:48;;;;;;;;;18.00;17.50;;;;;21.90;63.42;100660.31;4902528;28;45834;-79
2021/06/27 01:14:13;;;;;;;;;15.00;14.75;;;;;21.89;63.66;100664.00;4919862;28;45888;-79
2021/06/27 01:20:00;;;;;;;;;16.00;15.25;;;;;21.85;63.48;100668.88;4917446;28;46079;-79
2021/06/27 01:22:26;;;;;;;;;17.75;17.25;;;;;21.85;63.38;100665.38;4917798;28;45600;-79
2021/06/27 01:24:52;;;;;;;;;17.00;16.50;;;;;21.75;64.01;100658.44;4917930;28;45614;-80
2021/06/27 01:27:19;;;;;;;;;18.00;16.75;;;;;21.76;64.04;100661.94;4918141;28;46757;-79
2021/06/27 01:29:45;;;;;;;;;17.75;16.25;;;;;21.84;63.85;100687.72;4900228;28;45884;-77
2021/06/27 01:32:12;;;;;;;;;19.00;17.50;;;;;21.77;64.29;100661.75;4917306;28;46425;-79
2021/06/27 01:34:39;;;;;;;;;20.50;19.50;;;;;21.79;64.33;100661.59;4917742;28;45839;-77
2021/06/27 01:37:05;;;;;;;;;18.00;16.75;;;;;21.77;63.82;100656.41;4917672;28;46881;-79
2021/06/27 01:39:33;;;;;;;;;19.50;17.25;;;;;21.75;63.93;100652.28;4917220;28;46054;-78
2021/06/27 01:41:58;;;;;;;;;16.25;15.25;;;;;21.80;64.06;100665.09;4917160;28;45826;-78
2021/06/27 01:44:24;;;;;;;;;20.00;18.00;;;;;21.83;64.35;100675.38;4917425;28;45782;-78
2021/06/27 01:50:12;;;;;;;;;17.00;15.25;;;;;21.76;64.29;100649.41;4917146;28;46132;-80
2021/06/27 01:52:38;;;;;;;;;15.75;15.75;;;;;21.76;64.38;100635.25;4916890;28;45708;-79
2021/06/27 01:55:05;;;;;;;;;18.50;18.25;;;;;21.80;64.25;100633.91;4917146;28;45707;-78
2021/06/27 01:57:31;;;;;;;;;21.50;19.75;;;;;21.74;64.24;100624.78;4917129;28;47887;-78
2021/06/27 01:59:57;;;;;;;;;17.25;16.25;;;;;21.78;64.49;100626.06;4917089;28;46175;-79
2021/06/27 02:02:22;;;;;;;;;20.50;18.00;;;;;21.78;64.12;100633.25;4899636;28;45674;-78
2021/06/27 02:04:48;;;;;;;;;19.25;17.25;;;;;21.73;64.38;100630.28;4916974;28;45752;-78
2021/06/27 02:07:13;;;;;;;;;18.50;18.25;;;;;21.72;63.95;100626.78;4916997;28;45628;-79
2021/06/27 02:09:41;;;;;;;;;18.00;16.00;;;;;21.73;64.19;100617.78;4916886;28;46012;-79
2021/06/27 02:12:09;;;;;;;;;17.75;16.25;;;;;21.74;64.34;100611.44;4916646;28;45849;-78
2021/06/27 02:14:36;;;;;;;;;18.25;16.25;;;;;21.72;64.19;100601.97;4916948;28;45694;-79
2021/06/27 02:20:26;;;;;;;;;16.00;15.75;;;;;21.61;64.56;100595.22;4916864;28;45941;-78
2021/06/27 02:22:52;;;;;;;;;17.00;15.75;;;;;21.57;64.71;100582.44;4917032;28;45707;-78
2021/06/27 02:25:18;;;;;;;;;19.25;18.00;;;;;21.59;64.23;100583.09;4899683;28;45789;-80
2021/06/27 02:28:18;;;;;;;;;17.75;16.75;;;;;21.53;64.83;100568.66;4917207;28;46503;-80
2021/06/27 02:30:53;;;;;;;;;17.50;17.00;;;;;21.32;64.69;100523.19;4857936;29;46025;-79
2021/06/27 02:33:19;;;;;;;;;17.50;17.50;;;;;21.47;64.89;100552.53;4859074;29;45801;-79
2021/06/27 02:35:45;;;;;;;;;18.50;17.50;;;;;21.50;64.63;100560.16;4859211;29;45588;-80
2021/06/27 02:38:20;;;;;;;;;17.50;16.75;;;;;21.48;64.46;100548.88;4859252;29;45690;-80
2021/06/27 02:40:45;;;;;;;;;17.50;17.25;;;;;21.39;64.87;100534.78;4842443;29;47021;-79
2021/06/27 02:43:12;;;;;;;;;20.50;19.25;;;;;21.36;64.83;100535.16;4842701;29;45752;-79
2021/06/27 02:45:59;;;;;;;;;18.50;17.75;;;;;21.14;64.95;100493.34;4859909;29;45754;-80
2021/06/27 02:48:26;;;;;;;;;22.75;20.00;;;;;21.23;64.80;100505.59;4859595;29;45722;-78
2021/06/27 02:51:01;;;;;;;;;22.25;18.25;;;;;21.39;64.72;100524.09;4859223;29;48138;-80
2021/06/27 02:53:26;;;;;;;;;17.50;17.50;;;;;21.34;64.83;100510.50;4860938;29;45745;-79
2021/06/27 02:56:07;;;;;;;;;19.50;17.50;;;;;21.22;65.18;100499.44;4862223;29;45761;-80
2021/06/27 03:02:23;;;;;;;;;19.25;18.00;;;;;21.24;64.87;100510.75;4770634;29;45627;-80
2021/06/27 03:04:51;;;;;;;;;18.50;17.50;;;;;20.89;65.11;100436.78;4786942;29;45705;-80
2021/06/27 03:07:16;;;;;;;;;19.25;17.50;;;;;21.36;65.31;100513.81;4798351;29;46093;-79
2021/06/27 03:09:42;;;;;;;;;19.50;19.25;;;;;21.33;65.48;100514.16;4820352;29;46356;-79
2021/06/27 03:12:10;;;;;;;;;23.00;19.25;;;;;21.35;64.92;100528.97;4819956;29;45898;-79
2021/06/27 03:14:35;;;;;;;;;24.25;23.75;;;;;21.35;65.20;100541.47;4820270;29;46104;-78
2021/06/27 03:17:00;;;;;;;;;20.75;19.25;;;;;21.35;65.08;100533.47;4820027;29;45939;-78
2021/06/27 03:19:26;;;;;;;;;26.00;24.00;;;;;21.37;65.33;100530.66;4819994;29;47413;-80
2021/06/27 03:21:51;;;;;;;;;19.25;18.75;;;;;21.38;65.28;100533.09;4819913;29;47138;-78
2021/06/27 03:24:17;;;;;;;;;17.75;17.50;;;;;21.37;65.53;100520.81;4820108;29;45674;-79
2021/06/27 03:26:42;;;;;;;;;20.00;17.75;;;;;21.41;65.22;100523.94;4820404;29;45735;-79
2021/06/27 03:29:08;;;;;;;;;18.50;17.25;;;;;21.41;65.02;100519.44;4819798;29;47354;-80
2021/06/27 03:31:33;;;;;;;;;19.75;18.50;;;;;21.38;65.47;100517.13;4820737;29;46122;-78
2021/06/27 03:33:59;;;;;;;;;19.50;17.25;;;;;21.41;65.65;100521.28;4824018;29;45748;-79
2021/06/27 03:36:24;;;;;;;;;21.50;19.25;;;;;21.44;65.69;100512.91;4822946;29;45928;-79
2021/06/27 03:41:21;;;;;;;;;18.75;17.75;;;;;21.39;65.54;100492.13;4918148;28;46089;-79
2021/06/27 03:43:46;;;;;;;;;17.50;16.25;;;;;21.39;65.65;100496.63;4919909;28;45574;-79
2021/06/27 03:46:13;;;;;;;;;17.75;17.00;;;;;21.38;65.28;100510.97;4919988;28;45740;-79
2021/06/27 03:48:39;;;;;;;;;25.00;21.50;;;;;21.37;65.42;100523.47;4921127;28;46552;-79
2021/06/27 03:51:04;;;;;;;;;21.00;19.00;;;;;21.35;65.37;100520.16;4925836;28;45658;-79
2021/06/27 03:53:30;;;;;;;;;25.25;24.25;;;;;21.38;65.51;100532.31;4921979;28;46251;-78
2021/06/27 03:55:57;;;;;;;;;18.75;17.25;;;;;21.29;65.64;100527.03;4902000;28;45619;-80
2021/06/27 03:58:23;;;;;;;;;30.25;28.50;;;;;21.07;65.59;100489.72;4924547;28;45780;-78
2021/06/27 04:00:48;;;;;;;;;21.75;18.00;;;;;21.37;65.76;100531.47;4919738;28;45654;-80
2021/06/27 04:03:13;;;;;;;;;18.50;17.50;;;;;21.38;65.60;100527.78;4920886;28;45436;-78
2021/06/27 04:05:39;;;;;;;;;19.25;19.00;;;;;21.40;65.45;100532.94;4922151;28;45958;-78
2021/06/27 04:08:04;;;;;;;;;20.00;18.75;;;;;21.39;65.72;100525.94;4918698;28;45799;-77
2021/06/27 04:10:30;;;;;;;;;20.25;18.50;;;;;21.38;65.55;100524.31;4916404;28;46054;-78
2021/06/27 04:12:55;;;;;;;;;17.00;16.00;;;;;21.37;65.45;100526.16;4916315;28;45752;-79
2021/06/27 04:15:20;;;;;;;;;18.75;17.25;;;;;21.37;65.59;100528.81;4918018;28;45665;-79
2021/06/27 04:21:34;;;;;;;;;20.75;18.00;;;;;21.34;65.14;100537.16;4915220;28;45594;-79
2021/06/27 04:23:59;;;;;;;;;19.25;18.50;;;;;21.34;65.54;100534.47;4915788;28;45513;-80
2021/06/27 04:26:25;;;;;;;;;17.00;16.00;;;;;21.34;65.62;100523.81;4915758;28;45667;-80
2021/06/27 04:28:50;;;;;;;;;17.25;17.00;;;;;21.26;65.76;100523.91;4915967;28;45764;-79
2021/06/27 04:31:16;;;;;;;;;27.75;21.50;;;;;21.19;65.77;100509.63;4898040;28;48081;-80
2021/06/27 04:33:41;;;;;;;;;16.25;15.75;;;;;21.28;65.54;100527.19;4915668;28;45864;-80
2021/06/27 04:36:10;;;;;;;;;18.00;17.00;;;;;21.32;65.54;100531.19;4915119;28;45846;-79
2021/06/27 04:38:38;;;;;;;;;18.00;16.25;;;;;21.26;65.46;100514.09;4915431;28;46877;-79
2021/06/27 04:41:04;;;;;;;;;15.25;15.00;;;;;21.34;65.51;100524.66;4898499;28;47944;-80
2021/06/27 04:43:29;;;;;;;;;14.50;14.50;;;;;21.35;65.30;100525.47;4917391;28;45732;-78
2021/06/27 04:45:55;;;;;;;;;31.50;29.00;;;;;21.17;65.42;100493.81;4900212;28;45572;-79
2021/06/27 04:48:20;;;;;;;;;17.50;17.00;;;;;21.33;65.55;100524.81;4916711;28;46437;-80
2021/06/27 04:50:47;;;;;;;;;17.50;16.75;;;;;21.31;65.81;100518.88;4917907;28;45670;-79
2021/06/27 04:53:13;;;;;;;;;20.00;17.50;;;;;21.35;65.24;100520.97;4918529;28;45861;-79
2021/06/27 04:55:39;;;;;;;;;25.75;25.25;;;;;21.34;65.47;100532.66;4918662;28;45522;-79
2021/06/27 04:58:04;;;;;;;;;20.50;20.25;;;;;21.31;65.52;100513.53;4918899;28;46515;-79
2021/06/27 05:00:30;;;;;;;;;20.00;18.75;;;;;21.32;65.55;100520.53;4918809;28;46162;-80
2021/06/27 05:06:17;;;;;;;;;23.50;21.75;;;;;21.28;65.60;100509.38;4921169;28;45959;-79
2021/06/27 05:08:43;;;;;;;;;20.25;18.00;;;;;21.34;65.33;100524.66;4920229;28;46277;-79
2021/06/27 05:11:08;;;;;;;;;22.00;20.25;;;;;21.30;65.33;100517.19;4918778;28;47024;-78
2021/06/27 05:13:34;;;;;;;;;19.50;17.25;;;;;21.36;65.57;100524.47;4919141;28;45578;-78
2021/06/27 05:15:59;;;;;;;;;25.25;20.75;;;;;21.40;65.51;100527.59;4918988;28;45823;-79
2021/06/27 05:18:25;;;;;;;;;22.75;20.50;;;;;21.38;65.80;100517.13;4901717;28;47160;-78
2021/06/27 05:20:51;;;;;;;;;20.50;20.00;;;;;21.38;65.68;100513.66;4918734;28;45744;-77
2021/06/27 05:23:16;;;;;;;;;24.50;22.50;;;;;21.39;65.34;100507.28;4918744;28;45804;-79
2021/06/27 05:25:42;;;;;;;;;20.50;19.50;;;;;21.42;65.68;100512.28;4918541;28;45823;-80
2021/06/27 05:28:08;;;;;;;;;19.00;17.50;;;;;21.37;65.77;100504.00;4918424;28;45678;-80
2021/06/27 05:30:34;;;;;;;;;19.50;17.75;;;;;21.33;65.75;100504.34;4918317;28;45697;-80
2021/06/27 05:36:21;;;;;;;;;18.25;18.00;;;;;21.38;65.40;100519.78;4916412;28;45769;-78
2021/06/27 05:38:46;;;;;;;;;28.75;24.25;;;;;21.37;65.21;100515.47;4918408;28;46568;-79
2021/06/27 05:41:12;;;;;;;;;20.00;19.25;;;;;21.41;65.52;100530.09;4885157;28;46359;-79
2021/06/27 05:43:48;;;;;;;;;21.25;18.25;;;;;21.41;65.30;100519.44;4918057;28;45693;-80
2021/06/27 05:46:41;;;;;;;;;19.25;19.25;;;;;21.30;65.82;100504.72;4917963;28;45927;-80
2021/06/27 05:49:06;;;;;;;;;18.75;17.25;;;;;21.41;65.49;100522.09;4917657;28;45705;-79
2021/06/27 05:51:33;;;;;;;;;20.00;18.75;;;;;21.35;65.74;100515.66;4917675;28;47379;-79
2021/06/27 05:53:59;;;;;;;;;21.00;19.25;;;;;21.41;65.76;100524.75;4918188;28;45744;-80
2021/06/27 05:56:24;;;;;;;;;21.50;19.25;;;;;21.42;65.40;100522.94;4918451;28;45749;-79
2021/06/27 05:58:50;;;;;;;;;17.50;16.50;;;;;21.39;65.65;100515.28;4918018;28;46248;-79
2021/06/27 06:01:18;;;;;;;;;24.75;22.75;;;;;21.31;65.55;100501.03;4917967;28;46487;-79
2021/06/27 06:03:44;;;;;;;;;25.50;22.25;;;;;21.33;65.51;100501.66;4918355;28;45939;-79
2021/06/27 06:06:11;;;;;;;;;24.25;21.75;;;;;21.44;65.56;100519.06;4917996;28;45964;-78
2021/06/27 06:08:40;;;;;;;;;20.75;18.25;;;;;21.42;65.78;100517.59;4918244;28;46811;-79
2021/06/27 06:11:09;;;;;;;;;29.50;27.25;;;;;21.43;65.43;100524.59;4917742;28;46672;-78
2021/06/27 06:13:35;;;;;;;;;26.50;21.75;;;;;21.45;65.80;100522.56;4918059;28;45587;-78
2021/06/27 06:16:02;;;;;;;;;16.50;15.75;;;;;21.40;65.53;100515.09;4917912;28;45582;-79
2021/06/27 06:21:53;;;;;;;;;28.00;28.00;;;;;21.40;65.52;100512.44;4917535;28;46236;-78
2021/06/27 06:24:19;;;;;;;;;23.00;22.00;;;;;21.50;65.75;100526.34;4917475;28;45734;-79
2021/06/27 06:26:46;;;;;;;;;26.25;23.25;;;;;21.45;65.49;100517.22;4917878;28;45724;-79
2021/06/27 06:29:11;;;;;;;;;18.25;16.75;;;;;21.50;65.36;100522.84;4899843;28;47917;-78
2021/06/27 06:31:37;;;;;;;;;17.00;17.00;;;;;21.53;65.50;100525.16;4917486;28;46181;-80
2021/06/27 06:34:28;;;;;;;;;18.50;17.50;;;;;21.51;65.74;100525.31;4917578;28;45723;-80
2021/06/27 06:36:53;;;;;;;;;28.00;23.75;;;;;21.48;65.83;100519.53;4918074;28;45773;-81
2021/06/27 06:39:34;;;;;;;;;20.00;18.50;;;;;21.49;65.78;100514.00;4919161;28;46445;-80
2021/06/27 06:42:17;;;;;;;;;;;;;;;;;;;;;
2021/06/27 06:44:43;;;;;;;;;16.75;15.00;;;;;21.11;65.52;100456.38;4917177;28;74403;-80
2021/06/27 06:47:08;;;;;;;;;23.75;20.25;;;;;21.49;65.61;100522.00;4918910;28;45528;-80
2021/06/27 06:49:34;;;;;;;;;19.50;18.00;;;;;21.48;65.38;100512.38;4918534;28;45610;-80
2021/06/27 06:51:59;;;;;;;;;24.50;22.75;;;;;21.50;65.15;100521.00;4918958;28;45901;-79
2021/06/27 06:54:24;;;;;;;;;28.50;25.00;;;;;21.60;65.75;100545.56;4919480;28;46081;-79
2021/06/27 06:56:50;;;;;;;;;25.75;23.25;;;;;21.61;65.59;100541.06;4919815;28;45681;-82
2021/06/27 06:59:15;;;;;;;;;20.75;18.25;;;;;21.60;65.47;100536.72;4920105;28;45628;-79
2021/06/27 07:01:40;;;;;;;;;18.25;17.00;;;;;21.64;65.50;100536.22;4919851;28;47103;-80
2021/06/27 07:04:06;;;;;;;;;16.75;16.75;;;;;21.66;65.68;100538.66;4921335;28;45642;-79
2021/06/27 07:06:31;;;;;;;;;20.75;19.00;;;;;21.64;65.24;100530.88;4921797;28;45690;-80
2021/06/27 07:08:56;;;;;;;;;18.50;17.75;;;;;21.67;65.61;100524.34;4921562;28;46367;-79
2021/06/27 07:11:22;;;;;;;;;15.50;14.75;;;;;21.70;65.67;100538.13;4920538;28;45646;-79
2021/06/27 07:13:47;;;;;;;;;16.75;15.75;;;;;21.64;64.92;100519.38;4902731;28;45720;-79
2021/06/27 07:16:16;;;;;;;;;17.50;15.25;;;;;21.75;65.19;100542.94;4917247;28;45757;-79
2021/06/27 07:22:05;;;;;;;;;16.25;15.25;;;;;21.80;65.45;100532.53;4916667;28;45967;-80
2021/06/27 07:24:31;;;;;;;;;17.75;16.75;;;;;21.78;65.12;100526.53;4899470;28;45677;-80
2021/06/27 07:26:56;;;;;;;;;14.75;14.75;;;;;21.80;64.99;100537.88;4899573;28;45717;-80
2021/06/27 07:29:22;;;;;;;;;17.00;16.25;;;;;21.82;64.98;100529.66;4915612;28;47032;-80
2021/06/27 07:31:47;;;;;;;;;15.75;14.50;;;;;21.85;64.95;100532.81;4916539;28;46031;-79
2021/06/27 07:34:12;;;;;;;;;17.25;15.25;;;;;21.91;64.78;100531.25;4916467;28;45890;-78
2021/06/27 07:36:45;;;;;;;;;22.25;19.75;;;;;21.82;65.02;100516.31;4916150;28;45678;-79
2021/06/27 07:39:11;;;;;;;;;15.75;15.75;;;;;21.98;65.36;100526.84;4916522;28;46839;-79
2021/06/27 07:41:36;;;;;;;;;16.00;14.25;;;;;22.01;64.68;100529.16;4898879;28;47353;-80
2021/06/27 07:44:21;;;;;;;;;18.25;17.00;;;;;22.05;65.18;100527.78;4916051;28;45583;-81
2021/06/27 07:46:47;;;;;;;;;16.75;16.25;;;;;22.08;64.91;100520.22;4916418;28;45979;-81
2021/06/27 07:49:12;;;;;;;;;24.25;20.50;;;;;22.11;64.55;100511.03;4916087;28;45774;-80
2021/06/27 07:51:37;;;;;;;;;16.25;15.00;;;;;22.13;64.56;100511.69;4916231;28;45973;-79
2021/06/27 07:54:03;;;;;;;;;16.50;16.25;;;;;22.06;64.84;100500.09;4916297;28;45750;-80
2021/06/27 07:56:28;;;;;;;;;16.25;15.75;;;;;22.12;64.88;100497.50;4916837;28;45564;-80
2021/06/27 07:58:54;;;;;;;;;18.25;17.25;;;;;22.20;64.55;100504.56;4916694;28;46352;-80
2021/06/27 08:01:22;;;;;;;;;17.25;16.50;;;;;22.18;64.92;100498.59;4915042;28;46360;-80
2021/06/27 08:07:09;;;;;;;;;17.50;15.50;;;;;22.23;64.61;100504.19;4916269;28;45952;-79
2021/06/27 08:09:35;;;;;;;;;17.25;15.75;;;;;22.29;64.22;100502.63;4915869;28;47208;-80
2021/06/27 08:12:00;;;;;;;;;17.25;15.50;;;;;22.31;64.84;100500.56;4915823;28;46896;-78
2021/06/27 08:14:25;;;;;;;;;17.00;17.00;;;;;22.34;64.26;100492.22;4916143;28;45693;-79
2021/06/27 08:16:51;;;;;;;;;25.75;24.00;;;;;22.37;64.42;100486.47;4916242;28;45649;-81
2021/06/27 08:19:16;;;;;;;;;33.25;31.75;;;;;22.40;64.52;100491.47;4916235;28;46447;-81
2021/06/27 08:21:42;;;;;;;;;24.00;22.25;;;;;22.38;64.61;100482.81;4916226;28;46341;-80
2021/06/27 08:24:07;;;;;;;;;28.00;25.25;;;;;22.48;64.31;100496.66;4915483;28;45767;-81
2021/06/27 08:26:33;;;;;;;;;18.00;16.25;;;;;22.50;63.96;100500.00;4898762;28;45860;-80
2021/06/27 08:28:58;;;;;;;;;20.75;19.25;;;;;22.46;64.09;100502.19;4915809;28;46893;-79
2021/06/27 08:31:23;;;;;;;;;19.50;17.25;;;;;22.57;64.38;100515.06;4915757;28;46442;-80
2021/06/27 08:37:11;;;;;;;;;16.50;15.50;;;;;22.66;64.35;100517.63;4915067;28;45824;-79
2021/06/27 08:39:36;;;;;;;;;17.00;15.25;;;;;22.68;63.80;100523.59;4915693;28;47462;-80
2021/06/27 08:42:01;;;;;;;;;16.25;15.00;;;;;22.66;64.02;100517.63;4916495;28;45676;-80
2021/06/27 08:44:29;;;;;;;;;18.00;17.50;;;;;22.69;63.42;100525.25;4919254;28;45673;-81
2021/06/27 08:46:55;;;;;;;;;17.50;16.00;;;;;22.72;64.07;100524.91;4919763;28;45560;-80
2021/06/27 08:49:21;;;;;;;;;17.00;15.25;;;;;22.73;63.79;100519.34;4919191;28;45572;-80
2021/06/27 08:51:46;;;;;;;;;18.00;16.25;;;;;22.71;63.41;100516.06;4918793;28;47495;-79
2021/06/27 08:54:12;;;;;;;;;16.50;16.00;;;;;22.77;63.40;100527.84;4919139;28;45557;-80
2021/06/27 08:56:39;;;;;;;;;14.25;14.25;;;;;22.81;63.91;100531.78;4919648;28;45621;-79
2021/06/27 08:59:04;;;;;;;;;17.00;15.50;;;;;22.76;63.31;100518.16;4919987;28;46529;-78
2021/06/27 09:01:33;;;;;;;;;18.25;17.50;;;;;22.79;63.62;100521.28;4921381;28;45670;-79
2021/06/27 09:07:32;;;;;;;;;23.50;21.25;;;;;22.86;63.80;100530.19;4921671;28;45624;-79
2021/06/27 09:10:06;;;;;;;;;17.75;16.75;;;;;22.87;63.50;100534.53;4922377;28;45774;-80
2021/06/27 09:12:59;;;;;;;;;18.75;18.25;;;;;22.92;63.52;100536.63;4906593;28;47143;-80
2021/06/27 09:15:41;;;;;;;;;18.75;16.50;;;;;22.92;63.26;100537.44;4923184;28;45590;-78
2021/06/27 09:18:14;;;;;;;;;17.50;17.00;;;;;22.90;63.48;100533.28;4920986;28;45852;-81
2021/06/27 09:20:42;;;;;;;;;16.00;16.00;;;;;22.86;63.42;100524.00;4920491;28;47445;-79
2021/06/27 09:23:09;;;;;;;;;23.50;23.50;;;;;22.93;63.36;100536.44;4919220;28;46326;-79
2021/06/27 09:25:36;;;;;;;;;18.50;17.00;;;;;22.85;63.58;100525.84;4918417;28;45733;-80
2021/06/27 09:28:20;;;;;;;;;19.00;17.25;;;;;22.88;64.00;100532.69;4918151;28;45923;-81
2021/06/27 09:30:51;;;;;;;;;20.25;18.50;;;;;22.93;63.88;100541.78;4918256;28;46620;-80
2021/06/27 09:33:36;;;;;;;;;19.75;19.00;;;;;22.87;63.60;100533.69;4918792;28;45892;-80
2021/06/27 09:36:07;;;;;;;;;18.00;17.00;;;;;22.82;64.01;100523.59;4918528;28;45717;-81
2021/06/27 09:38:36;;;;;;;;;25.25;22.25;;;;;22.93;63.68;100543.63;4918870;28;45673;-80
2021/06/27 09:41:51;;;;;;;;;19.50;17.75;;;;;22.96;63.48;100552.06;4900396;28;47181;-79
2021/06/27 09:50:32;;;;;;;;;20.75;20.75;;;;;23.00;63.67;100561.34;4877741;29;45683;-79
2021/06/27 09:52:58;;;;;;;;;21.00;18.75;;;;;23.02;63.65;100562.00;4878309;29;46491;-80
2021/06/27 09:55:23;;;;;;;;;22.25;21.75;;;;;23.00;64.28;100558.69;4877928;29;46361;-78
2021/06/27 09:57:49;;;;;;;;;19.75;19.00;;;;;23.03;64.32;100565.50;4878018;29;46005;-77
2021/06/27 10:00:32;;;;;;;;;21.75;21.00;;;;;23.02;63.88;100567.34;4877886;29;45661;-79
2021/06/27 10:06:27;;;;;;;;;21.75;19.25;;;;;22.99;63.91;100580.28;4877871;29;45767;-78
2021/06/27 10:08:55;;;;;;;;;20.25;20.00;;;;;22.99;63.93;100580.28;4877980;29;45632;-79
2021/06/27 10:11:23;;;;;;;;;19.25;18.00;;;;;22.99;64.58;100582.94;4878031;29;45713;-77
2021/06/27 10:13:53;;;;;;;;;20.75;18.25;;;;;22.97;64.00;100583.13;4877335;29;47472;-78
2021/06/27 10:16:26;;;;;;;;;21.00;19.25;;;;;23.00;64.33;100588.09;4877320;29;47541;-78
2021/06/27 10:22:14;;;;;;;;;26.00;24.00;;;;;22.99;64.11;100583.78;4913039;28;45911;-78
2021/06/27 10:24:39;;;;;;;;;17.25;16.75;;;;;22.99;64.62;100591.78;4917430;28;45565;-78
2021/06/27 10:27:06;;;;;;;;;18.75;18.25;;;;;22.99;64.17;100596.31;4917273;28;46488;-78
2021/06/27 10:29:36;;;;;;;;;19.50;18.75;;;;;23.07;64.59;100600.69;4917311;28;45519;-78
2021/06/27 10:32:02;;;;;;;;;20.25;19.25;;;;;23.09;63.88;100596.00;4916930;28;45627;-78
2021/06/27 10:37:49;;;;;;;;;17.50;17.50;;;;;23.08;64.62;100611.19;4916059;28;46462;-79
2021/06/27 10:40:17;;;;;;;;;18.25;17.50;;;;;23.09;63.97;100610.19;4917534;28;45736;-78
2021/06/27 10:43:01;;;;;;;;;18.75;18.50;;;;;23.11;64.58;100607.31;4917507;28;45777;-78
2021/06/27 10:45:39;;;;;;;;;19.00;17.75;;;;;23.07;64.74;100606.88;4899948;28;46475;-78
2021/06/27 10:48:44;;;;;;;;;18.00;17.50;;;;;23.11;64.04;100609.97;4917282;28;45878;-80
2021/06/27 10:51:12;;;;;;;;;15.50;15.00;;;;;23.02;64.33;100598.59;4916976;28;45741;-79
2021/06/27 10:54:15;;;;;;;;;18.75;18.00;;;;;23.07;64.48;100616.72;4916936;28;45706;-79
2021/06/27 10:56:59;;;;;;;;;20.75;19.75;;;;;23.03;64.09;100608.28;4917167;28;45564;-80
2021/06/27 10:59:39;;;;;;;;;16.75;16.75;;;;;23.06;64.09;100618.56;4916928;28;47096;-79
2021/06/27 11:05:33;;;;;;;;;19.25;18.75;;;;;23.05;64.46;100608.09;4916254;28;45700;-79
2021/06/27 11:08:01;;;;;;;;;18.75;17.50;;;;;23.04;64.26;100609.94;4916730;28;47511;-80
2021/06/27 11:10:28;;;;;;;;;16.00;14.25;;;;;22.95;64.34;100606.53;4917865;28;45654;-79
2021/06/27 11:12:59;;;;;;;;;18.25;17.50;;;;;23.04;63.96;100609.94;4920144;28;45484;-79
2021/06/27 11:15:36;;;;;;;;;19.25;18.50;;;;;23.02;64.40;100609.28;4919861;28;45477;-79
2021/06/27 11:21:33;;;;;;;;;18.00;17.00;;;;;22.95;64.76;100597.69;4920791;28;46055;-79
2021/06/27 11:24:02;;;;;;;;;15.75;14.75;;;;;23.05;64.97;100614.25;4919866;28;45611;-79
2021/06/27 11:26:39;;;;;;;;;6.25;6.00;;;;;23.06;63.87;100618.56;4920106;28;45854;-78
2021/06/27 11:29:20;;;;;;;;;11.50;11.00;;;;;23.05;63.73;100618.78;4919302;28;46908;-79
2021/06/27 11:31:46;;;;;;;;;11.25;11.00;;;;;23.05;63.95;100619.59;4917625;28;46485;-79
2021/06/27 11:37:34;;;;;;;;;13.00;13.00;;;;;23.06;64.02;100621.25;4916655;28;45808;-79
2021/06/27 11:40:02;;;;;;;;;11.75;11.50;;;;;23.05;63.87;100621.44;4916597;28;47672;-78
2021/06/27 11:42:30;;;;;;;;;13.00;12.00;;;;;23.07;64.12;100622.06;4899226;28;47324;-79
2021/06/27 11:45:16;;;;;;;;;11.75;11.75;;;;;23.08;63.36;100618.38;4916222;28;45689;-79
2021/06/27 11:54:07;;;;;;;;;9.75;9.00;;;;;23.08;63.55;100621.06;4915971;28;46015;-80
2021/06/27 11:57:05;;;;;;;;;10.50;10.00;;;;;23.07;62.85;100616.72;4916457;28;45723;-79
2021/06/27 11:59:38;;;;;;;;;12.50;10.75;;;;;23.07;63.16;100627.41;4916227;28;45823;-79
2021/06/27 12:02:16;;;;;;;;;8.25;8.25;;;;;23.08;62.78;100623.72;4916061;28;47528;-78
2021/06/27 12:04:51;;;;;;;;;13.50;12.25;;;;;23.06;62.77;100615.06;4916077;28;45942;-80
2021/06/27 12:07:42;;;;;;;;;12.00;10.75;;;;;23.10;63.13;100625.22;4916073;28;45741;-78
2021/06/27 12:10:13;;;;;;;;;10.75;10.75;;;;;23.13;62.97;100619.47;4916079;28;45638;-78
2021/06/27 12:12:42;;;;;;;;;11.00;11.00;;;;;23.13;62.74;100616.81;4916229;28;45616;-80
2021/06/27 12:15:14;;;;;;;;;12.00;11.00;;;;;23.11;63.40;100605.47;4916014;28;45909;-79
2021/06/27 12:17:41;;;;;;;;;11.00;10.25;;;;;23.19;63.56;100616.03;4915167;28;45499;-78
2021/06/27 12:20:07;;;;;;;;;13.75;12.00;;;;;23.25;62.74;100620.63;4916089;28;45587;-80
2021/06/27 12:22:50;;;;;;;;;11.25;11.25;;;;;23.23;62.80;100603.13;4915866;28;47320;-79
2021/06/27 12:25:16;;;;;;;;;11.75;11.00;;;;;23.33;63.47;100615.13;4915958;28;46340;-80
2021/06/27 12:27:51;;;;;;;;;11.00;11.00;;;;;23.37;63.14;100604.91;4915908;28;45792;-78
2021/06/27 12:30:18;;;;;;;;;10.50;10.50;;;;;23.40;62.78;100604.50;4898973;28;45928;-78
2021/06/27 12:36:09;;;;;;;;;9.75;9.75;;;;;23.42;62.52;100589.13;4915886;28;46153;-80
2021/06/27 12:38:36;;;;;;;;;8.25;8.00;;;;;23.50;63.14;100594.34;4915754;28;45776;-80
2021/06/27 12:41:04;;;;;;;;;8.00;7.50;;;;;23.53;62.49;100595.81;4915865;28;45670;-79
2021/06/27 12:43:32;;;;;;;;;8.25;8.00;;;;;23.56;62.69;100587.38;4915733;28;46428;-78
2021/06/27 12:46:22;;;;;;;;;8.25;7.00;;;;;23.63;62.24;100591.78;4914619;28;46552;-80